Time;durP1;ratioP1;P1;durP2;ratioP2;P2;SDS_P1;SDS_P2;PMS_P1;PMS_P2;Temp;Humidity;BMP_temperature;BMP_pressure;BME280_temperature;BME280_humidity;BME280_pressure;Samples;Min_cycle;Max_cycle;Signal;HPM_P1;HPM_P2
2022/08/31 00:04:10;;;;;;;1.33;0.75;;;17.10;99.90;;;;;;5064334;28;20040;-38
2022/08/31 00:06:37;;;;;;;1.15;0.90;;;17.00;99.90;;;;;;5063562;28;20064;-39
2022/08/31 00:09:04;;;;;;;4.38;1.58;;;17.00;99.90;;;;;;5064091;28;20048;-38
2022/08/31 00:11:34;;;;;;;1.17;0.90;;;17.00;99.90;;;;;;5063273;28;20472;-35
2022/08/31 00:14:04;;;;;;;0.75;0.73;;;17.00;99.90;;;;;;5062454;28;20056;-40
2022/08/31 00:16:32;;;;;;;2.15;0.82;;;17.00;99.90;;;;;;5066717;28;20024;-38
2022/08/31 00:18:58;;;;;;;1.48;1.00;;;17.00;99.90;;;;;;5064684;28;20528;-37
2022/08/31 00:21:25;;;;;;;1.10;1.00;;;17.00;99.90;;;;;;5059796;28;20032;-40
2022/08/31 00:23:52;;;;;;;1.50;0.82;;;17.00;99.90;;;;;;5062732;28;20064;-35
2022/08/31 00:26:18;;;;;;;1.15;0.63;;;17.00;99.90;;;;;;5062521;28;20220;-33
2022/08/31 00:28:44;;;;;;;4.32;0.80;;;17.00;99.90;;;;;;5064095;28;20427;-37
2022/08/31 00:31:10;;;;;;;3.38;0.80;;;17.00;99.90;;;;;;5062906;28;20023;-42
2022/08/31 00:33:36;;;;;;;4.47;0.60;;;17.00;99.90;;;;;;5064368;28;20457;-39
2022/08/31 00:36:08;;;;;;;0.90;0.90;;;17.00;99.90;;;;;;5063749;28;20070;-38
2022/08/31 00:38:34;;;;;;;0.85;0.85;;;17.00;99.90;;;;;;5059098;28;20021;-37
2022/08/31 00:40:59;;;;;;;1.58;0.82;;;17.00;99.90;;;;;;5061156;28;20119;-34
2022/08/31 00:43:40;;;;;;;2.55;0.90;;;17.00;99.90;;;;;;5063018;28;20021;-39
2022/08/31 00:46:08;;;;;;;3.47;0.85;;;17.00;99.90;;;;;;5062153;28;20103;-38
2022/08/31 00:48:35;;;;;;;;;;;17.00;99.90;;;;;;5062708;28;20025;-37
2022/08/31 00:51:01;;;;;;;1.25;0.88;;;17.00;99.90;;;;;;5063288;28;19908;-38
2022/08/31 00:53:27;;;;;;;2.03;1.15;;;17.00;99.90;;;;;;5058662;28;20405;-52
2022/08/31 00:55:53;;;;;;;1.95;1.30;;;17.00;99.90;;;;;;5057904;28;20024;-38
2022/08/31 00:58:19;;;;;;;1.30;0.90;;;17.00;99.90;;;;;;5065278;28;20484;-38
2022/08/31 01:00:47;;;;;;;1.45;0.95;;;17.00;99.90;;;;;;5060726;28;20347;-35
2022/08/31 01:03:14;;;;;;;0.70;0.70;;;17.00;99.90;;;;;;5059895;28;20020;-35
2022/08/31 01:05:40;;;;;;;4.13;1.08;;;16.90;99.90;;;;;;5060294;28;20127;-38
2022/08/31 01:08:06;;;;;;;1.25;0.90;;;16.90;99.90;;;;;;5059417;28;20441;-38
2022/08/31 01:10:38;;;;;;;4.68;1.00;;;17.00;99.90;;;;;;5060721;28;20129;-33
2022/08/31 01:13:05;;;;;;;2.45;1.38;;;16.90;99.90;;;;;;5061365;28;20477;-40
2022/08/31 01:15:35;;;;;;;2.25;1.08;;;17.00;99.90;;;;;;5064470;28;20031;-37
2022/08/31 01:18:03;;;;;;;1.13;0.90;;;17.00;99.90;;;;;;5060278;28;20068;-33
2022/08/31 01:21:10;;;;;;;0.70;0.70;;;17.00;99.90;;;;;;5057220;28;20060;-32
2022/08/31 01:23:38;;;;;;;;;;;16.90;99.90;;;;;;5053618;28;20544;-38
2022/08/31 01:26:05;;;;;;;1.70;0.85;;;16.80;99.90;;;;;;5060507;28;19912;-35
2022/08/31 01:28:31;;;;;;;2.25;1.00;;;16.90;99.90;;;;;;5062252;28;20099;-42
2022/08/31 01:31:22;;;;;;;0.80;0.80;;;16.80;99.90;;;;;;5060381;28;20397;-36
2022/08/31 01:33:48;;;;;;;0.80;0.80;;;16.80;99.90;;;;;;5061465;28;20036;-36
2022/08/31 01:36:15;;;;;;;1.80;0.80;;;16.70;99.90;;;;;;5059254;28;20040;-38
2022/08/31 01:38:59;;;;;;;1.03;0.83;;;16.70;99.90;;;;;;5061990;28;20099;-40
2022/08/31 01:41:25;;;;;;;0.80;0.80;;;16.60;99.90;;;;;;5063166;28;20042;-44
2022/08/31 01:43:51;;;;;;;4.32;0.80;;;16.60;99.90;;;;;;5058910;28;20512;-38
2022/08/31 01:46:18;;;;;;;1.40;0.90;;;16.60;99.90;;;;;;5061700;28;20517;-38
2022/08/31 01:48:44;;;;;;;0.80;0.80;;;16.60;99.90;;;;;;5056399;28;20477;-38
2022/08/31 01:51:13;;;;;;;1.10;1.00;;;16.60;99.90;;;;;;5062573;28;20020;-40
2022/08/31 01:53:39;;;;;;;1.08;0.90;;;16.60;99.90;;;;;;5062397;28;20498;-36
2022/08/31 01:56:15;;;;;;;0.68;0.68;;;16.60;99.90;;;;;;5059536;28;20299;-34
2022/08/31 01:58:41;;;;;;;0.90;0.90;;;16.50;99.90;;;;;;5062678;28;20039;-41
2022/08/31 02:01:06;;;;;;;1.15;0.60;;;16.50;99.90;;;;;;5062487;28;20541;-37
2022/08/31 02:03:32;;;;;;;1.05;0.77;;;16.60;99.90;;;;;;5055386;28;20028;-38
2022/08/31 02:05:57;;;;;;;0.70;0.70;;;16.50;99.90;;;;;;5062778;28;20035;-41
2022/08/31 02:08:23;;;;;;;2.95;1.00;;;16.40;99.90;;;;;;5067512;28;20112;-37
2022/08/31 02:10:49;;;;;;;1.40;0.70;;;16.40;99.90;;;;;;5067188;28;20029;-38
2022/08/31 02:13:15;;;;;;;1.40;1.15;;;16.40;99.90;;;;;;5065543;28;20050;-38
2022/08/31 02:15:40;;;;;;;0.60;0.60;;;16.40;99.90;;;;;;5062054;28;20035;-33
2022/08/31 02:18:06;;;;;;;8.48;0.75;;;16.40;99.90;;;;;;5068018;28;20057;-36
2022/08/31 02:20:32;;;;;;;0.90;0.70;;;16.40;99.90;;;;;;5064630;28;20485;-36
2022/08/31 02:23:01;;;;;;;0.88;0.88;;;16.40;99.90;;;;;;5064690;28;20029;-35
2022/08/31 02:25:27;;;;;;;4.03;0.75;;;16.40;99.90;;;;;;5063984;28;20059;-41
2022/08/31 02:27:53;;;;;;;0.65;0.65;;;16.40;99.90;;;;;;5064691;28;20499;-33
2022/08/31 02:30:19;;;;;;;1.08;0.68;;;16.40;99.90;;;;;;5063987;28;20566;-39
2022/08/31 02:32:44;;;;;;;2.00;0.60;;;16.30;99.90;;;;;;5066466;28;20047;-37
2022/08/31 02:35:10;;;;;;;0.90;0.77;;;16.30;99.90;;;;;;5066816;28;20097;-38
2022/08/31 02:37:36;;;;;;;1.17;0.88;;;16.30;99.90;;;;;;5060215;28;20033;-37
2022/08/31 02:40:04;;;;;;;0.52;0.52;;;16.30;99.90;;;;;;5065709;28;20072;-39
2022/08/31 02:42:29;;;;;;;1.08;0.73;;;16.30;99.90;;;;;;5061996;28;20480;-38
2022/08/31 02:44:56;;;;;;;0.65;0.65;;;16.30;99.90;;;;;;5066607;28;20068;-36
2022/08/31 02:47:21;;;;;;;1.80;0.85;;;16.20;99.90;;;;;;5061417;28;20027;-38
2022/08/31 02:49:47;;;;;;;1.58;0.70;;;16.30;99.90;;;;;;5065920;28;20020;-38
2022/08/31 02:52:12;;;;;;;1.42;0.88;;;16.30;99.90;;;;;;5068873;28;20084;-38
2022/08/31 02:54:38;;;;;;;3.13;0.80;;;16.30;99.90;;;;;;5063285;28;20393;-41
2022/08/31 02:57:04;;;;;;;1.58;0.77;;;16.20;99.90;;;;;;5062624;28;20100;-37
2022/08/31 02:59:29;;;;;;;1.73;0.85;;;16.20;99.90;;;;;;5065295;28;20044;-34
2022/08/31 03:01:55;;;;;;;3.33;0.75;;;16.20;99.90;;;;;;5065504;28;20040;-36
2022/08/31 03:04:21;;;;;;;1.40;0.70;;;16.20;99.90;;;;;;5066839;28;20056;-38
2022/08/31 03:06:46;;;;;;;0.65;0.65;;;16.20;99.90;;;;;;5063115;28;20021;-35
2022/08/31 03:09:12;;;;;;;2.10;1.10;;;16.20;99.90;;;;;;5064454;28;20524;-34
2022/08/31 03:11:38;;;;;;;0.80;0.68;;;16.20;99.90;;;;;;5065355;28;20107;-33
2022/08/31 03:14:03;;;;;;;3.05;1.00;;;16.20;99.90;;;;;;5063062;28;20032;-34
2022/08/31 03:16:29;;;;;;;0.98;0.82;;;16.10;99.90;;;;;;5063078;28;20036;-34
2022/08/31 03:18:55;;;;;;;1.33;1.08;;;16.10;99.90;;;;;;5062407;28;20025;-36
2022/08/31 03:21:20;;;;;;;0.70;0.70;;;16.10;99.90;;;;;;5066997;28;20476;-31
2022/08/31 03:23:46;;;;;;;0.95;0.82;;;16.10;99.90;;;;;;5065879;28;20051;-34
2022/08/31 03:26:11;;;;;;;1.23;0.90;;;16.10;99.90;;;;;;5063042;28;20032;-38
2022/08/31 03:28:38;;;;;;;1.40;0.73;;;16.00;99.90;;;;;;5060243;28;20037;-38
2022/08/31 03:31:09;;;;;;;2.05;1.15;;;16.00;99.90;;;;;;5063239;28;20058;-32
2022/08/31 03:33:35;;;;;;;0.95;0.88;;;16.00;99.90;;;;;;5062846;28;20033;-38
2022/08/31 03:36:03;;;;;;;0.90;0.90;;;16.00;99.90;;;;;;5064775;28;20047;-38
2022/08/31 03:38:29;;;;;;;0.95;0.90;;;16.00;99.90;;;;;;5064359;28;20025;-37
2022/08/31 03:40:55;;;;;;;2.13;0.80;;;16.00;99.90;;;;;;5065568;28;20480;-36
2022/08/31 03:43:20;;;;;;;1.50;0.90;;;15.90;99.90;;;;;;5062961;28;20024;-33
2022/08/31 03:45:47;;;;;;;0.60;0.60;;;15.90;99.90;;;;;;5062615;28;20092;-33
2022/08/31 03:48:13;;;;;;;2.00;0.88;;;15.90;99.90;;;;;;5061686;28;20464;-34
2022/08/31 03:50:40;;;;;;;1.58;0.85;;;15.90;99.90;;;;;;5065208;28;20469;-31
2022/08/31 03:53:07;;;;;;;1.08;0.88;;;15.90;99.90;;;;;;5062258;28;20697;-33
2022/08/31 03:55:35;;;;;;;0.73;0.73;;;15.90;99.90;;;;;;5064420;28;20473;-34
2022/08/31 03:58:01;;;;;;;6.70;0.90;;;15.90;99.90;;;;;;5063422;28;20071;-39
2022/08/31 04:00:27;;;;;;;4.13;0.90;;;15.90;99.90;;;;;;5062576;28;20469;-35
2022/08/31 04:02:52;;;;;;;0.68;0.68;;;15.90;99.90;;;;;;5063629;28;20059;-40
2022/08/31 04:05:20;;;;;;;5.70;1.10;;;15.90;99.90;;;;;;5066447;28;20056;-38
2022/08/31 04:07:45;;;;;;;1.13;0.68;;;15.90;99.90;;;;;;5063331;28;20021;-37
2022/08/31 04:10:12;;;;;;;6.43;0.93;;;15.80;99.90;;;;;;5065634;28;20035;-43
2022/08/31 04:12:38;;;;;;;2.83;0.90;;;15.80;99.90;;;;;;5057745;28;20040;-42
2022/08/31 04:15:05;;;;;;;3.80;0.65;;;15.70;99.90;;;;;;5059632;28;20435;-38
2022/08/31 04:17:31;;;;;;;0.70;0.70;;;15.60;99.90;;;;;;5060335;28;20097;-38
2022/08/31 04:19:57;;;;;;;2.08;1.02;;;15.60;99.90;;;;;;5063144;28;20444;-38
2022/08/31 04:22:22;;;;;;;1.48;0.77;;;15.50;99.90;;;;;;5061727;28;20113;-38
2022/08/31 04:24:48;;;;;;;1.20;0.85;;;15.50;99.90;;;;;;5064497;28;20035;-38
2022/08/31 04:27:13;;;;;;;0.95;0.68;;;15.50;99.90;;;;;;5063681;28;20021;-35
2022/08/31 04:29:39;;;;;;;7.55;0.90;;;15.40;99.90;;;;;;5064811;28;20257;-38
2022/08/31 04:32:05;;;;;;;1.05;0.80;;;15.40;99.90;;;;;;5062677;28;20019;-37
2022/08/31 04:34:30;;;;;;;9.93;0.77;;;15.30;99.90;;;;;;5066174;28;20028;-37
2022/08/31 04:36:56;;;;;;;0.70;0.68;;;15.20;99.90;;;;;;5062822;28;20028;-35
2022/08/31 04:39:22;;;;;;;3.38;0.90;;;15.20;99.90;;;;;;5064158;28;20031;-38
2022/08/31 04:41:48;;;;;;;1.10;0.88;;;15.10;99.90;;;;;;5064725;28;20028;-39
2022/08/31 04:44:14;;;;;;;1.15;0.90;;;15.10;99.90;;;;;;5064801;28;20480;-37
2022/08/31 04:46:40;;;;;;;2.30;1.00;;;15.10;99.90;;;;;;5060701;28;20346;-37
2022/08/31 04:49:08;;;;;;;1.63;0.93;;;15.20;99.90;;;;;;5062208;28;20039;-33
2022/08/31 04:51:34;;;;;;;3.42;0.98;;;15.10;99.90;;;;;;5061486;28;20515;-33
2022/08/31 04:54:02;;;;;;;4.97;0.90;;;15.10;99.90;;;;;;5065280;28;20047;-33
2022/08/31 04:56:31;;;;;;;0.93;0.68;;;15.10;99.90;;;;;;5063548;28;20729;-37
2022/08/31 04:59:05;;;;;;;3.80;0.73;;;15.10;99.90;;;;;;5061927;28;20686;-32
2022/08/31 05:01:37;;;;;;;1.13;0.70;;;15.00;99.90;;;;;;5060096;28;20025;-34
2022/08/31 05:04:04;;;;;;;1.10;0.85;;;15.00;99.90;;;;;;5058686;28;20562;-33
2022/08/31 05:06:32;;;;;;;4.82;0.80;;;14.90;99.90;;;;;;5062511;28;20024;-36
2022/08/31 05:09:10;;;;;;;0.80;0.70;;;15.00;99.90;;;;;;5062510;28;20102;-40
2022/08/31 05:11:37;;;;;;;1.92;0.70;;;14.90;99.90;;;;;;5056583;28;20100;-32
2022/08/31 05:14:05;;;;;;;3.65;0.68;;;14.90;99.90;;;;;;5058792;28;20029;-35
2022/08/31 05:16:32;;;;;;;1.25;0.70;;;14.90;99.90;;;;;;5062593;28;20032;-63
2022/08/31 05:18:58;;;;;;;2.13;0.60;;;15.00;99.90;;;;;;5060038;28;20535;-33
2022/08/31 05:21:30;;;;;;;0.82;0.60;;;14.90;99.90;;;;;;5059949;28;20279;-38
2022/08/31 05:23:58;;;;;;;1.63;0.80;;;14.90;99.90;;;;;;5059152;28;20056;-36
2022/08/31 05:26:29;;;;;;;0.95;0.50;;;14.90;99.90;;;;;;5058901;28;20177;-39
2022/08/31 05:28:55;;;;;;;0.75;0.57;;;14.80;99.90;;;;;;5062107;28;20052;-39
2022/08/31 05:31:22;;;;;;;3.33;0.73;;;14.80;99.90;;;;;;5057159;28;20036;-38
2022/08/31 05:33:48;;;;;;;0.38;0.38;;;14.80;99.90;;;;;;5062463;28;20109;-39
2022/08/31 05:36:14;;;;;;;3.78;0.50;;;14.80;99.90;;;;;;5062885;28;20017;-35
2022/08/31 05:38:41;;;;;;;1.52;0.52;;;14.80;99.90;;;;;;5059449;28;20131;-37
2022/08/31 05:41:08;;;;;;;1.63;0.70;;;14.90;99.90;;;;;;5059139;28;20955;-37
2022/08/31 05:43:36;;;;;;;1.02;0.57;;;14.90;99.90;;;;;;5062188;28;20058;-36
2022/08/31 05:46:08;;;;;;;2.38;0.60;;;14.90;99.90;;;;;;5060319;28;20815;-36
2022/08/31 05:48:35;;;;;;;0.40;0.40;;;14.90;99.90;;;;;;5055020;28;20021;-38
2022/08/31 05:51:05;;;;;;;10.23;1.10;;;14.90;99.90;;;;;;5060568;28;20079;-36
2022/08/31 05:53:32;;;;;;;3.15;0.70;;;14.90;99.90;;;;;;5062063;28;20491;-33
2022/08/31 05:56:05;;;;;;;1.83;0.45;;;15.00;99.90;;;;;;5058904;28;20071;-35
2022/08/31 05:58:32;;;;;;;1.02;0.50;;;15.00;99.90;;;;;;5060480;28;20044;-32
2022/08/31 06:00:59;;;;;;;0.40;0.40;;;15.00;99.90;;;;;;5058932;28;20074;-36
2022/08/31 06:03:25;;;;;;;3.30;0.50;;;15.00;99.90;;;;;;5058869;28;20039;-36
2022/08/31 06:05:51;;;;;;;0.30;0.30;;;15.00;99.90;;;;;;5056527;28;20021;-39
2022/08/31 06:08:17;;;;;;;2.10;0.47;;;15.10;99.90;;;;;;5060634;28;20037;-37
2022/08/31 06:10:44;;;;;;;3.50;0.50;;;15.20;99.90;;;;;;5059875;28;20043;-38
2022/08/31 06:13:13;;;;;;;1.23;0.45;;;15.20;99.90;;;;;;5058464;28;20024;-37
2022/08/31 06:15:39;;;;;;;1.15;0.68;;;15.20;99.90;;;;;;5052081;28;20037;-38
2022/08/31 06:18:06;;;;;;;2.80;0.40;;;15.20;99.90;;;;;;5056739;28;20189;-35
2022/08/31 06:20:36;;;;;;;1.60;0.40;;;15.30;99.90;;;;;;5063504;28;20147;-46
2022/08/31 06:23:04;;;;;;;1.70;0.60;;;15.30;99.90;;;;;;5056245;28;21062;-40
2022/08/31 06:25:31;;;;;;;0.35;0.35;;;15.40;99.90;;;;;;5060799;28;20103;-38
2022/08/31 06:27:58;;;;;;;1.05;0.65;;;15.50;99.90;;;;;;5062733;28;20103;-30
2022/08/31 06:30:26;;;;;;;3.03;0.53;;;15.50;99.90;;;;;;5057296;28;20492;-35
2022/08/31 06:32:54;;;;;;;;;;;15.50;99.90;;;;;;5061416;28;20016;-33
2022/08/31 06:35:20;;;;;;;0.60;0.40;;;15.60;99.90;;;;;;5059971;28;19908;-35
2022/08/31 06:37:45;;;;;;;0.40;0.40;;;15.50;99.90;;;;;;5060087;28;20056;-39
2022/08/31 06:40:11;;;;;;;0.90;0.60;;;15.70;99.90;;;;;;5054456;28;20029;-37
2022/08/31 06:42:37;;;;;;;1.48;0.75;;;15.80;99.90;;;;;;5061482;28;20032;-32
2022/08/31 06:45:06;;;;;;;1.65;0.60;;;15.90;99.90;;;;;;5061494;28;20476;-34
2022/08/31 06:47:33;;;;;;;0.60;0.57;;;16.00;99.90;;;;;;5061931;28;20056;-34
2022/08/31 06:49:59;;;;;;;1.20;0.47;;;16.00;99.90;;;;;;5057112;28;20147;-36
2022/08/31 06:52:25;;;;;;;2.78;0.40;;;16.20;99.90;;;;;;5057753;28;20107;-33
2022/08/31 06:54:51;;;;;;;0.47;0.38;;;16.20;99.90;;;;;;5062590;28;20433;-32
2022/08/31 06:57:17;;;;;;;0.50;0.50;;;16.30;99.90;;;;;;5056825;28;20153;-34
2022/08/31 06:59:43;;;;;;;3.63;0.35;;;16.40;99.90;;;;;;5059825;28;20489;-36
2022/08/31 07:02:09;;;;;;;0.60;0.50;;;16.50;99.90;;;;;;5063768;28;20021;-34
2022/08/31 07:04:37;;;;;;;3.15;0.50;;;16.60;99.90;;;;;;5066637;28;20044;-31
2022/08/31 07:07:05;;;;;;;0.43;0.30;;;16.60;99.90;;;;;;5069788;28;20469;-34
2022/08/31 07:09:31;;;;;;;3.05;0.80;;;16.60;99.90;;;;;;5066834;28;20024;-32
2022/08/31 07:11:57;;;;;;;2.05;0.55;;;16.50;99.90;;;;;;5072521;28;20012;-37
2022/08/31 07:14:24;;;;;;;1.35;0.57;;;16.50;99.90;;;;;;5067470;28;20024;-32
2022/08/31 07:16:55;;;;;;;0.68;0.50;;;16.60;99.90;;;;;;5064236;28;20503;-37
2022/08/31 07:19:21;;;;;;;0.60;0.60;;;16.80;99.90;;;;;;5067932;28;20039;-35
2022/08/31 07:21:50;;;;;;;1.10;0.63;;;16.90;99.90;;;;;;5071552;28;20024;-35
2022/08/31 07:24:21;;;;;;;3.85;1.35;;;17.00;99.90;;;;;;5066669;28;20318;-37
2022/08/31 07:26:51;;;;;;;0.50;0.45;;;17.10;99.90;;;;;;5062611;28;20131;-38
2022/08/31 07:29:20;;;;;;;0.63;0.63;;;17.20;99.90;;;;;;5068653;28;20033;-32
2022/08/31 07:31:46;;;;;;;1.10;0.52;;;17.40;99.90;;;;;;5061082;28;20082;-39
2022/08/31 07:34:16;;;;;;;1.23;0.55;;;17.40;99.90;;;;;;5058131;28;20112;-36
2022/08/31 07:42:16;;;;;;;1.08;0.75;;;17.40;99.90;;;;;;5059221;28;20087;-36
2022/08/31 07:44:44;;;;;;;0.50;0.50;;;17.40;99.90;;;;;;5054229;28;20461;-34
2022/08/31 07:47:11;;;;;;;0.32;0.32;;;17.40;99.90;;;;;;5049889;28;20051;-30
2022/08/31 07:49:43;;;;;;;1.90;1.13;;;17.40;99.90;;;;;;5049630;28;20027;-37
2022/08/31 07:52:10;;;;;;;1.02;0.60;;;17.50;99.90;;;;;;5058711;28;20066;-48
2022/08/31 07:54:36;;;;;;;0.70;0.70;;;17.60;99.90;;;;;;5065791;28;20051;-34
2022/08/31 07:57:03;;;;;;;1.45;0.80;;;17.80;99.90;;;;;;5059878;28;20442;-32
2022/08/31 08:02:15;;;;;;;0.50;0.50;;;18.20;99.90;;;;;;5062959;28;20083;-33
2022/08/31 08:04:43;;;;;;;2.40;0.88;;;18.30;99.90;;;;;;5062397;28;20472;-32
2022/08/31 08:07:10;;;;;;;1.75;0.80;;;18.40;99.90;;;;;;5061381;28;20461;-36
2022/08/31 08:09:36;;;;;;;1.45;0.70;;;18.40;99.90;;;;;;5064106;28;20024;-31
2022/08/31 08:12:05;;;;;;;0.80;0.80;;;18.50;99.90;;;;;;5066185;28;20033;-39
2022/08/31 08:14:33;;;;;;;1.13;1.00;;;18.60;99.90;;;;;;5061260;28;20025;-34
2022/08/31 08:16:59;;;;;;;6.10;1.02;;;18.70;99.90;;;;;;5060897;28;20112;-37
2022/08/31 08:19:25;;;;;;;1.23;0.60;;;19.00;99.90;;;;;;5065631;28;20028;-41
2022/08/31 08:21:50;;;;;;;4.38;0.75;;;19.10;99.90;;;;;;5065125;28;20044;-37
2022/08/31 08:24:16;;;;;;;1.17;0.82;;;19.30;99.90;;;;;;5061306;28;20032;-39
2022/08/31 08:26:49;;;;;;;2.05;1.00;;;19.40;99.90;;;;;;5061211;28;20051;-35
2022/08/31 08:29:16;;;;;;;1.08;1.08;;;19.40;99.90;;;;;;5063907;28;20024;-41
2022/08/31 08:31:43;;;;;;;0.90;0.90;;;19.30;99.90;;;;;;5065529;28;20107;-43
2022/08/31 08:34:09;;;;;;;2.40;0.90;;;19.50;99.90;;;;;;5062520;28;20524;-40
2022/08/31 08:36:35;;;;;;;1.33;0.73;;;19.70;99.90;;;;;;5065012;28;20472;-37
2022/08/31 08:39:04;;;;;;;2.47;0.98;;;20.00;99.90;;;;;;5065261;28;20028;-38
2022/08/31 08:41:35;;;;;;;7.05;1.30;;;20.10;99.90;;;;;;5059283;28;20028;-34
2022/08/31 08:44:04;;;;;;;7.30;1.95;;;20.30;99.90;;;;;;5061834;28;20082;-35
2022/08/31 08:46:38;;;;;;;1.95;1.00;;;20.40;99.90;;;;;;5061041;28;20123;-37
2022/08/31 08:49:23;;;;;;;6.05;0.80;;;20.30;99.90;;;;;;5062776;28;20016;-33
2022/08/31 08:51:53;;;;;;;3.50;1.00;;;20.20;99.90;;;;;;5057675;28;20055;-40
2022/08/31 08:54:34;;;;;;;1.30;0.98;;;20.40;99.90;;;;;;5061908;28;20497;-35
2022/08/31 08:57:06;;;;;;;4.10;1.13;;;20.30;99.90;;;;;;5071871;28;20044;-33
2022/08/31 08:59:32;;;;;;;3.03;1.05;;;20.30;99.90;;;;;;5062973;28;20049;-35
2022/08/31 09:02:03;;;;;;;5.38;0.70;;;20.40;99.90;;;;;;5064101;28;20415;-37
2022/08/31 09:05:01;;;;;;;1.25;1.15;;;20.40;99.90;;;;;;5059100;28;20443;-42
2022/08/31 09:07:55;;;;;;;1.48;0.93;;;20.40;99.90;;;;;;5010015;28;20432;-34
2022/08/31 09:10:41;;;;;;;6.25;1.02;;;20.40;99.90;;;;;;5061350;28;20016;-34
2022/08/31 09:13:47;;;;;;;0.70;0.70;;;20.40;99.90;;;;;;5062735;28;20032;-47
2022/08/31 09:16:16;;;;;;;2.05;0.90;;;20.60;99.90;;;;;;5063038;28;20112;-35
2022/08/31 09:18:51;;;;;;;1.25;0.85;;;20.60;99.90;;;;;;5066508;28;20503;-31
2022/08/31 09:21:22;;;;;;;5.00;1.48;;;20.80;99.90;;;;;;5053604;28;20021;-36
2022/08/31 09:24:01;;;;;;;1.27;0.80;;;20.90;99.90;;;;;;5058582;28;20021;-33
2022/08/31 09:26:31;;;;;;;2.15;0.70;;;20.90;99.90;;;;;;5059751;28;20027;-32
2022/08/31 09:28:57;;;;;;;2.17;0.93;;;21.00;99.90;;;;;;5063794;28;20021;-30
2022/08/31 09:31:36;;;;;;;1.48;1.00;;;21.10;99.90;;;;;;5062622;28;20029;-32
2022/08/31 09:34:24;;;;;;;2.72;1.08;;;21.20;99.90;;;;;;5060317;28;20024;-41
2022/08/31 09:36:50;;;;;;;1.92;1.08;;;21.30;99.90;;;;;;5060278;28;20041;-33
2022/08/31 09:39:17;;;;;;;4.75;1.10;;;21.30;99.90;;;;;;5063035;28;20044;-35
2022/08/31 09:41:44;;;;;;;0.57;0.57;;;21.40;99.90;;;;;;5061190;28;20477;-33
2022/08/31 09:44:21;;;;;;;1.90;0.77;;;21.30;99.90;;;;;;5059176;28;20134;-48
2022/08/31 09:46:52;;;;;;;1.17;0.93;;;21.40;99.90;;;;;;5062225;28;20029;-39
2022/08/31 09:49:20;;;;;;;1.13;0.82;;;21.40;99.90;;;;;;5065010;28;20111;-52
2022/08/31 09:51:47;;;;;;;2.90;1.30;;;21.50;99.90;;;;;;5065907;28;20027;-43
2022/08/31 09:57:03;;;;;;;0.88;0.80;;;21.50;99.90;;;;;;5063439;28;20396;-37
2022/08/31 09:59:42;;;;;;;3.03;0.95;;;21.70;99.90;;;;;;5060968;28;20415;-36
2022/08/31 10:02:21;;;;;;;0.57;0.57;;;21.90;99.50;;;;;;5061766;28;20036;-39
2022/08/31 10:04:54;;;;;;;2.65;0.82;;;22.10;99.70;;;;;;5062015;28;20033;-37
2022/08/31 10:07:43;;;;;;;3.63;0.90;;;22.40;99.00;;;;;;5060338;28;20054;-36
2022/08/31 10:10:14;;;;;;;4.63;0.77;;;22.70;98.80;;;;;;5058402;28;20024;-39
2022/08/31 10:12:51;;;;;;;3.33;0.60;;;23.00;98.60;;;;;;5059786;28;20056;-37
2022/08/31 10:15:27;;;;;;;2.88;0.88;;;23.00;98.30;;;;;;5063949;28;20032;-35
2022/08/31 10:18:10;;;;;;;4.03;1.15;;;23.20;98.20;;;;;;5060706;28;20032;-36
2022/08/31 10:20:47;;;;;;;0.55;0.52;;;23.10;98.00;;;;;;5060473;28;20040;-34
2022/08/31 10:23:32;;;;;;;3.45;1.27;;;23.10;98.10;;;;;;5061299;28;20037;-37
2022/08/31 10:26:06;;;;;;;1.50;1.33;;;23.10;98.00;;;;;;5061099;28;20029;-38
2022/08/31 10:28:36;;;;;;;1.83;0.85;;;23.20;97.70;;;;;;5070298;28;20040;-40
2022/08/31 10:31:22;;;;;;;9.65;1.02;;;23.20;97.80;;;;;;5071617;28;20475;-39
2022/08/31 10:36:48;;;;;;;0.63;0.63;;;23.40;97.80;;;;;;5065380;28;20047;-35
2022/08/31 10:39:43;;;;;;;1.23;1.10;;;23.60;97.60;;;;;;5067845;28;20032;-39
2022/08/31 10:42:16;;;;;;;1.23;0.60;;;23.40;97.80;;;;;;5061626;28;20035;-41
2022/08/31 10:44:56;;;;;;;0.80;0.80;;;23.50;97.80;;;;;;5067062;28;20024;-39
2022/08/31 10:47:24;;;;;;;2.25;0.82;;;23.20;97.90;;;;;;5065394;28;20633;-38
2022/08/31 10:53:02;;;;;;;1.90;0.90;;;23.20;97.40;;;;;;5074894;28;20040;-38
2022/08/31 10:55:47;;;;;;;4.07;0.68;;;23.20;97.60;;;;;;5066941;28;20430;-38
2022/08/31 10:58:43;;;;;;;1.23;0.60;;;23.30;98.00;;;;;;5071266;28;20106;-40
2022/08/31 11:01:12;;;;;;;8.55;0.90;;;23.40;97.70;;;;;;5067358;28;20028;-37
2022/08/31 11:03:57;;;;;;;1.15;0.70;;;23.50;97.60;;;;;;5068299;28;20476;-36
2022/08/31 11:06:37;;;;;;;2.65;0.80;;;23.60;97.30;;;;;;5066604;28;20556;-38
2022/08/31 11:09:07;;;;;;;1.42;0.70;;;23.80;97.20;;;;;;5070705;28;20024;-38
2022/08/31 11:11:39;;;;;;;1.00;0.77;;;23.70;97.00;;;;;;5070187;28;20025;-32
2022/08/31 11:14:22;;;;;;;3.85;0.60;;;23.60;96.90;;;;;;5069406;28;20060;-35
2022/08/31 11:17:07;;;;;;;3.42;0.70;;;23.50;96.80;;;;;;5071090;28;20046;-33
2022/08/31 11:19:53;;;;;;;1.58;1.02;;;23.60;97.00;;;;;;5061856;28;20493;-34
2022/08/31 11:22:38;;;;;;;1.73;0.80;;;23.70;96.50;;;;;;5055074;28;20429;-51
2022/08/31 11:25:25;;;;;;;16.15;1.05;;;23.90;96.80;;;;;;5065646;28;20498;-33
2022/08/31 11:28:10;;;;;;;6.72;1.00;;;24.20;96.30;;;;;;5061908;28;20066;-32
2022/08/31 11:30:43;;;;;;;3.47;0.70;;;24.30;95.70;;;;;;5065000;28;20086;-32
2022/08/31 11:33:18;;;;;;;11.70;1.10;;;24.10;95.80;;;;;;5069063;28;20494;-35
2022/08/31 11:36:04;;;;;;;1.63;0.60;;;24.40;96.10;;;;;;5064383;28;20027;-34
2022/08/31 11:39:14;;;;;;;0.60;0.60;;;24.30;95.80;;;;;;5061690;28;20024;-32
2022/08/31 11:41:45;;;;;;;1.60;0.60;;;24.40;96.00;;;;;;5048248;28;20532;-42
2022/08/31 11:44:29;;;;;;;0.93;0.70;;;24.40;95.80;;;;;;5063614;28;20020;-36
2022/08/31 11:47:07;;;;;;;1.48;0.50;;;24.40;95.60;;;;;;5061897;28;20024;-37
2022/08/31 11:49:49;;;;;;;1.30;0.98;;;24.60;95.40;;;;;;5066475;28;20028;-32
2022/08/31 11:52:28;;;;;;;2.15;0.63;;;24.70;95.40;;;;;;5059724;28;20016;-32
2022/08/31 11:54:58;;;;;;;1.80;0.85;;;24.70;95.00;;;;;;5064516;28;20500;-39
2022/08/31 11:57:27;;;;;;;4.78;0.65;;;24.70;95.20;;;;;;5065499;28;20488;-38
2022/08/31 11:59:54;;;;;;;2.08;0.68;;;25.10;94.70;;;;;;5061905;28;20461;-39
2022/08/31 12:02:21;;;;;;;5.13;0.70;;;25.10;94.60;;;;;;5063636;28;20563;-35
2022/08/31 12:04:53;;;;;;;6.55;0.80;;;24.80;94.80;;;;;;5065748;28;20492;-33
2022/08/31 12:07:33;;;;;;;5.70;0.95;;;24.80;95.10;;;;;;5066908;28;20487;-39
2022/08/31 12:10:10;;;;;;;2.85;1.60;;;24.80;95.30;;;;;;5061994;28;20040;-36
2022/08/31 12:12:38;;;;;;;;;;;24.90;94.70;;;;;;5061416;28;20108;-35
2022/08/31 12:15:34;;;;;;;0.77;0.60;;;25.10;94.70;;;;;;5064346;28;19915;-38
2022/08/31 12:18:09;;;;;;;2.90;1.25;;;25.30;94.20;;;;;;5065682;28;20035;-35
2022/08/31 12:23:43;;;;;;;1.53;0.50;;;25.00;94.00;;;;;;5061713;28;20039;-33
2022/08/31 12:26:28;;;;;;;7.72;0.95;;;25.00;94.40;;;;;;5064910;28;20639;-35
2022/08/31 12:29:21;;;;;;;9.48;0.43;;;25.10;94.20;;;;;;5063807;28;20025;-34
2022/08/31 12:32:15;;;;;;;3.38;0.55;;;25.20;94.00;;;;;;5066174;28;20030;-37
2022/08/31 12:35:14;;;;;;;0.73;0.73;;;25.20;93.60;;;;;;5064284;28;20035;-47
2022/08/31 12:37:40;;;;;;;4.32;0.52;;;25.00;93.60;;;;;;5064658;28;20400;-39
2022/08/31 12:40:32;;;;;;;0.90;0.50;;;25.10;93.70;;;;;;5065148;28;20029;-41
2022/08/31 12:43:03;;;;;;;3.55;0.82;;;25.20;93.40;;;;;;5064984;28;20492;-36
2022/08/31 12:45:48;;;;;;;2.63;0.85;;;25.20;93.60;;;;;;5064416;28;20024;-44
2022/08/31 12:48:41;;;;;;;0.85;0.50;;;25.10;93.30;;;;;;5064566;28;20050;-38
2022/08/31 12:51:22;;;;;;;2.00;0.60;;;25.00;93.30;;;;;;5062993;28;20029;-37
2022/08/31 12:54:04;;;;;;;0.95;0.55;;;25.00;93.10;;;;;;5061355;28;20025;-35
2022/08/31 12:56:53;;;;;;;0.75;0.55;;;25.20;93.60;;;;;;5061176;28;20116;-36
2022/08/31 12:59:46;;;;;;;0.75;0.70;;;25.00;92.90;;;;;;5061914;28;20431;-32
2022/08/31 13:02:13;;;;;;;0.50;0.50;;;25.00;93.30;;;;;;5062239;28;20488;-40
2022/08/31 13:04:46;;;;;;;2.08;0.60;;;24.90;93.50;;;;;;5060255;28;20028;-36
2022/08/31 13:07:28;;;;;;;1.25;1.15;;;25.10;93.60;;;;;;5062884;28;20112;-40
2022/08/31 13:10:14;;;;;;;0.65;0.43;;;25.20;92.90;;;;;;5063670;28;20037;-37
2022/08/31 13:13:06;;;;;;;1.25;0.85;;;24.90;93.10;;;;;;5060308;28;20080;-40
2022/08/31 13:15:40;;;;;;;0.75;0.47;;;24.70;93.00;;;;;;5060597;28;20044;-38
2022/08/31 13:18:14;;;;;;;3.70;1.20;;;24.70;93.30;;;;;;5064745;28;20447;-38
2022/08/31 13:20:45;;;;;;;9.68;0.90;;;24.90;92.80;;;;;;5059061;28;20510;-38
2022/08/31 13:23:14;;;;;;;3.90;0.88;;;25.00;93.10;;;;;;5060960;28;20024;-41
2022/08/31 13:25:41;;;;;;;0.95;0.50;;;25.10;93.00;;;;;;5067876;28;20548;-36
2022/08/31 13:28:11;;;;;;;1.02;0.73;;;25.30;92.60;;;;;;5061915;28;20048;-39
2022/08/31 13:30:38;;;;;;;4.05;0.65;;;25.40;92.60;;;;;;5063593;28;20093;-39